Colorado AWOS List, Phone Numbers, Maps

USA |  
| Search AWOS

Rocky Mountain States: Montana | Wyoming | Colorado | New Mexico

Complete weather reports: Colorado

Legend: KFNL = METAR available Follow your local AWOS on AV Mobile = METAR available on AV Mobile
Station Colorado Location Frequency Phone
KAKOFAA ID AKO, ASOS, KAKO 022253Z AUTO 16006KT 10SM CLR 32/03 A2996 RMK AO2 SLP079 T03220033 Follow KAKO on AV Mobile COLORADO PLAINS REGIONAL 135.475 970-345-2320
KALSFAA ID ALS, ASOS, KALS 022303Z AUTO 32015G26KT 10SM BKN100 BKN110 22/04 A3023 Follow KALS on AV Mobile SAN LUIS VALLEY REGIONAL 135.175 719-589-5669
KASEFAA ID ASE, ASOS, KASE 022253Z 32008KT 10SM FEW120 24/06 A3024 Follow KASE on AV Mobile ASPEN-PITKIN COUNTY AIRPORT 120.400 970-925-9168
KBKFFAA ID BKF, KBKF 022258Z 22008KT 10SM FEW080 SCT130 BKN220 30/03 A3004 Follow KBKF on AV Mobile Aurora, Buckley Air Force Base Airport
K7BMFAA ID 7BM, AWOS-3, K7BM 022327Z AUTO 31005KT 10SM SCT090 20/00 A3041 RMK AO2 LTG DSNT SW Follow K7BM on AV Mobile Cottonwood Pass 132.050 303-512-4919
KBDUFAA ID BDU, AWOS-3, KBDU 022334Z AUTO 00000KT 10SM CLR 30/05 A2999 RMK AO2 LTG DSNT SW Follow KBDU on AV Mobile Boulder Municipal Airport 118.825 303-541-9540
KAEJFAA ID AEJ, AWOS-3, KAEJ 022335Z AUTO 26011KT 10SM SCT120 24/01 A3025 RMK AO2 LTG DSNT SW T02370008 Follow KAEJ on AV Mobile Central Colorado Regional Airport 132.925 719-395-2599
KITRFAA ID ITR, ASOS, KITR 022253Z AUTO VRB04KT 10SM CLR 34/06 A2993 RMK AO2 SLP074 T03390056 Follow KITR on AV Mobile Kit Carson County Airport 135.225 719-346-7036
K1V6FAA ID 1V6, AWOS-3, K1V6 022330Z AUTO 07004KT 10SM CLR 32/05 A3000 RMK AO2 Follow K1V6 on AV Mobile CANON CITY 120.025
KAFFFAA ID AFF, KAFF 022258Z AUTO VRB02KT 10SM BKN120 28/02 A3011 RMK AO2 SLP089 T02790021 Follow KAFF on AV Mobile Air Force Academy
KCOSFAA ID COS, ASOS, KCOS 022254Z 11006G15KT 10SM SCT110 SCT250 29/02 A3009 Follow KCOS on AV Mobile COLORADO SPRINGS MUNI 125.000 719-637-9696
KFLYFAA ID FLY, AWOS-3PT, KFLY 022332Z AUTO 10SM SCT110 28/01 A3016 RMK AO2 T02770005 Follow KFLY on AV Mobile Meadowlake Airport, Peyton, CO 118.450 719-683-5371
KCCUFAA ID CCU, AWOS-3, KCCU 022333Z AUTO 27014G23KT 10SM CLR 16/M02 A3057 RMK AO2 Follow KCCU on AV Mobile Copper Mountain, Red Cliff Pass 118.075 970-968-1715
KCEZFAA ID CEZ, ASOS, KCEZ 022253Z AUTO 20011KT 10SM FEW085 27/08 A3013 RMK AO2 SLP129 T02720078 Follow KCEZ on AV Mobile CORTEZ MONTEZUMA COUNTY AIRPORT 135.625 970-564-0193
KCAGFAA ID CAG, ASOS, KCAG 022330Z AUTO 18009KT 10SM VCTS SCT085 26/08 A3011 Follow KCAG on AV Mobile CRAIG MOFFAT AIRPORT 135.425 970-824-2373
KRCVFAA ID RCV, AWOS-3PT, KRCV 022330Z AUTO 05005KT 10SM SCT120 17/12 A3030 RMK AO2 LTG DSNT NE THRU SE T01700115 Follow KRCV on AV Mobile DEL NORTE 118.275 719-657-9017
KAJZFAA ID AJZ, AWOS-3, KAJZ 022335Z AUTO 15006KT 5SM HZ SCT120 30/08 A3005 RMK AO2 LTG DSNT NE T03040078 Follow KAJZ on AV Mobile Blake Field Airport 134.000 970-874-3251
KDNRICAO ID KDNR Denver / Stapleton International, Co.
KAPAFAA ID APA, ASOS, KAPA 022253Z 06004KT 10SM FEW120 SCT140 BKN220 31/02 A3005 RMK AO2 SLP089 T03110022 Follow KAPA on AV Mobile DENVER CENTENNIAL AIRPORT 120.300 303-706-9098
KDENFAA ID DEN, ASOS, KDEN 022253Z VRB05KT 10SM SCT100 SCT130 BKN220 32/01 A3001 Follow KDEN on AV Mobile DENVER INTERNATIONAL AIRPORT 125.600 303-342-0838
KFTGFAA ID FTG, AWOS-3, KFTG 012355Z 11003KT 50SM BKN120 BKN180 28/02 A3008 Follow KFTG on AV Mobile Front Range Airport 119.025 303-261-9104
KBJCFAA ID BJC, AWOS-3, KBJC 022150Z 12003KT 50SM FEW060 BKN120 BKN200 31/03 A3004 Follow KBJC on AV Mobile Rocky Mountain Metro Airport 126.250 720-887-8067
K4V5ICAO ID K4V5 Durango Aviation Weather Reporting Station
KDROFAA ID DRO, ASOS, KDRO 022327Z AUTO 25012KT 10SM FEW120 24/08 A3019 RMK AO2 LTG DSNT NE AND E TSE2257 T02440078 Follow KDRO on AV Mobile DURANGO-LA PLATA COUNTY AIRPORT 120.625 970-259-3579
KEGEFAA ID EGE, AWOS-3, KEGE 022253Z 28011KT 10SM SCT100 26/06 A3017 Follow KEGE on AV Mobile Eagle County Regional 135.575 970-524-7386
CO90FAA ID CO90, ASOS, KDUC 022340Z AUTO 15013G19KT 10SM 31/09 A2977 Follow  on AV Mobile USAF Academy Bullseye Aux Airstrip 118.325 719-683-3346
K0COFAA ID 0CO, AWOS-3, K0CO 022334Z AUTO 10SM BKN090 10/03 A3063 RMK AO2 Follow K0CO on AV Mobile EMPIRE 134.325
KEIKFAA ID EIK, AWOS-3, KEIK 022335Z AUTO 13003KT 10SM CLR 32/00 A2998 RMK AO2 LTG DSNT SW T03150002 Follow KEIK on AV Mobile Erie Municipal Airport 133.825 303-604-4339
KFCSFAA ID FCS, KFCS 022258Z AUTO 13008KT 10SM CLR 29/05 A3005 RMK AO2 SLP115 T02920048 $ Follow KFCS on AV Mobile Fort Carson
KFCLICAO ID KFCL Fort Collins Supplementary Aviation Weather Reporting Station
KFNLFAA ID FNL, AWOS-3, KFNL 022335Z AUTO 19003KT 10SM CLR 30/05 A2995 RMK AO1 Follow KFNL on AV Mobile Fort Collins/Loveland, Fort Collins-Loveland Municipal Airport 135.075 970-669-9187
KFMMFAA ID FMM, AWOS-3, KFMM 022335Z AUTO 13006KT 10SM CLR 32/04 A2996 RMK AO2 LTG DSNT SW T03230035 Follow KFMM on AV Mobile Fort Morgan Municipal Airport 132.950 970-867-4823
KGNBFAA ID GNB, AWOS-3PT Granby-Grand County Airport 119.925 970-887-1803
KGJTFAA ID GJT, ASOS, KGJT 022253Z 31007KT 10SM SCT100 30/08 A3001 Follow KGJT on AV Mobile GRAND JUNCTION WALKER FIELD 118.550 970-245-7881
KGXYFAA ID GXY, AWOS-3, KGXY 022335Z AUTO 34003KT CLR 33/04 A2996 RMK AO1 Follow KGXY on AV Mobile Greeley, Greeley-Weld County Airport 135.175 970-352-3511
K2V9ICAO ID K2V9 Gunnison Aviation Weather Reporting Station
KGUCFAA ID GUC, AWOS-3, KGUC 022335Z AUTO 14009KT 10SM TS FEW034 BKN070 15/09 A3031 RMK AO1 WSHFT 58 P0005 Follow KGUC on AV Mobile Gunnison, Gunnison-Crested Butte Regional Airport 135.075 970-641-3240
KHDNFAA ID HDN, AWOS-3, KHDN 090755Z AUTO 10009KT 10SM FEW037 SCT060 BKN065 13/08 A3024 RMK AO1 TSNO Follow KHDN on AV Mobile Hayden, Yampa Valley Airport 119.275 970-276-3690
KHEQFAA ID HEQ, AWOS-3, KHEQ 022335Z AUTO 00000KT 10SM CLR 35/08 A2989 RMK AO2 Follow KHEQ on AV Mobile Holyoke Airport 119.275 970-854-3679
K20VFAA ID 20V, AWOS-3, K20V 022336Z AUTO 24007KT 10SM VCTS CLR 23/00 A3021 RMK AO2 Follow K20V on AV Mobile Kremmling, Mc Elroy Airfield 118.425 970-724-9659
KLHXFAA ID LHX, ASOS, KLHX 022253Z AUTO VRB04KT 10SM CLR 36/03 A2992 RMK AO2 SLP062 T03610033 Follow KLHX on AV Mobile LA JUNTA MUNICIPAL AIRPORT 135.525 719-384-5961
KVTPFAA ID VTP, AWOS-3, KVTP 022328Z AUTO 21005KT 10SM VCTS SCT075 OVC110 19/01 A3043 RMK AO2 LTG DSNT SW Follow KVTP on AV Mobile La Veta Mountain, La Veta Pass 119.925 719-587-3120
KLAAFAA ID LAA, ASOS, KLAA 022253Z AUTO 27006KT 8SM CLR 34/08 A2988 RMK AO2 SLP063 T03390083 TSNO Follow KLAA on AV Mobile LAMAR MUNICIPAL AIRPORT 135.625 719-336-3854
KLXVFAA ID LXV, ASOS, KLXV 022253Z AUTO 19008KT 10SM SCT090 18/02 A3039 Follow KLXV on AV Mobile LEADVILLE LAKE CO 118.375 719-486-2735
KLICFAA ID LIC, ASOS, KLIC 022255Z AUTO VRB04KT 10SM CLR 31/03 A3003 RMK AO2 SLP090 T03110033 Follow KLIC on AV Mobile LIMON MUNICIPAL AIRPORT 121.125 719-775-0515
KLMOFAA ID LMO, AWOS-3, KLMO 022334Z AUTO 00000KT 10SM CLR 32/04 A2999 RMK AO2 T03170037 PWINO Follow KLMO on AV Mobile Vance Brand Airport 120.000 303-684-7545
KEEOFAA ID EEO, ASOS, KEEO 022253Z AUTO 01003KT 10SM SCT110 26/09 A3012 RMK AO2 RAB2159E08 TSE01 SLP118 P0000 T02560094 Follow KEEO on AV Mobile MEEKER AIRPORT 135.525 970-878-5036
KMYPFAA ID MYP, AWOS-3, KMYP 022334Z AUTO 21016KT 10SM SCT048 SCT065 BKN100 11/02 A3069 RMK AO2 LTG DSNT W Follow KMYP on AV Mobile Salida Mountain, Monarch Pass 124.175 719-539-4436
KMTJFAA ID MTJ, ASOS, KMTJ 022321Z AUTO 01009KT 10SM FEW090 25/11 A3011 RMK AO2 LTG DSNT NE T02500111 Follow KMTJ on AV Mobile MONTROSE REGIONAL AIRPORT 135.225 970-249-1534
KMNHFAA ID MNH, AWOS-3, KMNH 022334Z AUTO 13005KT 10SM CLR 23/05 A3017 RMK AO2 LTG DSNT W Follow KMNH on AV Mobile Elbert Mountain, Monument Pass 134.375 303-648-3479
KCRVICAO ID KCRV Nederland Mountain, Corona Pass
KAIBFAA ID AIB, AWOS-3, KAIB 022335Z AUTO 22012G18KT 10SM CLR 29/02 A3012 RMK AO2 LTG DSNT NE Follow KAIB on AV Mobile Hopkins Field Airport 132.525 970-864-2325
KPSOFAA ID PSO, AWOS-3, KPSO 022335Z AUTO 27012KT 10SM SCT070 SCT110 25/03 A3026 RMK AO2 LTG DSNT N AND W T02510033 Follow KPSO on AV Mobile Stevens Field Airport 127.175 970-731-0365
KPEFICAO ID KPEF Peterson Air Force Base
KPUXICAO ID KPUX Pueblo NEXRAD
KPUBFAA ID PUB, ASOS, KPUB 022253Z AUTO 13011KT 10SM CLR 34/04 A2996 Follow KPUB on AV Mobile PUEBLO MEMORIAL AIRPORT 125.250 719-948-2803
4V0FAA ID 4V0, AWOS-3PT, KDUC 022340Z AUTO 15013G19KT 10SM 31/09 A2977 Follow  on AV Mobile RANGELY 119.025 970-675-2339
K1V1ICAO ID K1V1 Rifle Aviation Weather Reporting Station
KRILFAA ID RIL, ASOS, KRIL 022253Z AUTO 15005KT 10SM -RA FEW043 FEW065 SCT100 24/13 A3008 RMK AO2 WSHFT 2144 RAE01B43 TSE04 SLP127 P0000 T02440128 Follow KRIL on AV Mobile RIFLE GARFIELD COUNTY RGNL 135.275 970-625-2206
K04VFAA ID 04V, AWOS-3, K04V 022332Z AUTO 11003KT 10SM -RA BKN095 OVC110 20/07 A3031 RMK AO2 LTG DSNT SE S AND NW Follow K04V on AV Mobile Saguache, Saguache Municipal Airport 118.625 719-655-2229
KS29ICAO ID KS29 Salida
KANKFAA ID ANK, AWOS-3, KANK 022335Z AUTO 20014G21KT 10SM OVC110 24/02 A3029 RMK AO1 T02400021 Follow KANK on AV Mobile Harriet Alexander Field Airport 133.850 719-539-5268
KSPDICAO ID KSPD, KSPD 022256Z AUTO 17012G20KT 33/08 A2995 RMK AO1 SLP070 T03280083 Follow KSPD on AV Mobile SPRINGFIELD COMANCHE NATL
KSBSFAA ID SBS, AWOS-3, KSBS 022335Z AUTO 07003KT 10SM SCT120 24/06 A3016 RMK AO1 T02420056 Follow KSBS on AV Mobile Steamboat Springs 118.325 970-879-7794
KSTKFAA ID STK, AWOS-3, KSTK 022325Z AUTO 16003KT 10SM CLR 35/06 A2989 RMK AO2 Follow KSTK on AV Mobile Sterling Municipal Airport 118.525 970-526-3009
K5SMFAA ID 5SM, AWOS-3, K5SM 022332Z AUTO 00000KT 10SM CLR 17/08 A3050 RMK AO2 LTG DSNT SE AND S Follow K5SM on AV Mobile Sunlight 126.075 970-384-3380
KTEXFAA ID TEX, AWOS-3, KTEX 022335Z AUTO 14010KT 10SM SCT065 BKN080 BKN100 18/08 A3039 RMK AO2 LTG DSNT N T01780080 Follow KTEX on AV Mobile Telluride, Telluride Regional Airport 118.325 970-728-1534
KTADFAA ID TAD, ASOS, KTAD 022254Z AUTO 17017G23KT 10SM CLR 28/06 A3008 RMK AO2 PK WND 15029/2230 LTG DSNT S SLP103 T02780061 Follow KTAD on AV Mobile Trinidad, Perry Stokes Airport 119.025 719-845-1156
K33VFAA ID 33V, AWOS-3, K33V 022335Z AUTO 24009KT 10SM CLR 22/02 A3025 RMK AO2 Follow K33V on AV Mobile WALDEN 118.625 970-723-4513
4V1FAA ID 4V1, AWOS-3, KDUC 022340Z AUTO 15013G19KT 10SM 31/09 A2977 Follow  on AV Mobile Spanish Peaks Airfield 123.600 719-738-1053
K4BMFAA ID 4BM, AWOS-3, K4BM 022336Z AUTO 23006KT 10SM BKN110 16/M01 A3054 RMK AO2 Follow K4BM on AV Mobile Wilkerson Pass 132.3 303-512-4418
KC96ICAO ID KC96 Winter Park Resort
KCPWFAA ID CPW, AWOS-3, KCPW 020451Z AUTO 23015KT 10SM SCT038 SCT047 08/03 A3065 RMK AO2 LTG DSNT N Follow KCPW on AV Mobile Pagosa Springs, Wolf Creek Pass 121.125 970-264-2180
K2V5FAA ID 2V5, AWOS-3, K2V5 022335Z AUTO 14006KT 10SM OVC002 36/04 A2988 RMK AO2 T03610044 Follow K2V5 on AV Mobile Wray Municipal Airport 118.250 970-332-5930
2V6FAA ID 2V6, AWOS-3, KDUC 022340Z AUTO 15013G19KT 10SM 31/09 A2977 Follow  on AV Mobile YUMA 135.375 970-848-3007

Click on the AV Mobile icon AV Mobile icon by any station to follow that AWOS feed on AirportView.net Mobile.

Legend: Commercial service airport with AWOS Commercial Airport AWOSNon-Commercial service airport with AWOS Non-Commercial Airport AWOS
Airport AWOS - Click symbol for weather report Fort Morgan Municipal Airport KFMM 022335Z AUTO 13006KT 10SM CLR 32/04 A2996 RMK AO2 LTG DSNT SW T03230035 Hopkins Field Airport KAIB 022335Z AUTO 22012G18KT 10SM CLR 29/02 A3012 RMK AO2 LTG DSNT NE Telluride, Telluride Regional Airport KTEX 022335Z AUTO 14010KT 10SM SCT065 BKN080 BKN100 18/08 A3039 RMK AO2 LTG DSNT N T01780080 Greeley, Greeley-Weld County Airport KGXY 022335Z AUTO 34003KT CLR 33/04 A2996 RMK AO1 Front Range Airport KFTG 012355Z 11003KT 50SM BKN120 BKN180 28/02 A3008 Rocky Mountain Metro Airport KBJC 022150Z 12003KT 50SM FEW060 BKN120 BKN200 31/03 A3004 DENVER CENTENNIAL AIRPORT KAPA 022253Z 06004KT 10SM FEW120 SCT140 BKN220 31/02 A3005 RMK AO2 SLP089 T03110022 DENVER INTERNATIONAL AIRPORT KDEN 022253Z VRB05KT 10SM SCT100 SCT130 BKN220 32/01 A3001 Fort Collins/Loveland, Fort Collins-Loveland Municipal Airport KFNL 022335Z AUTO 19003KT 10SM CLR 30/05 A2995 RMK AO1 Boulder Municipal Airport KBDU 022334Z AUTO 00000KT 10SM CLR 30/05 A2999 RMK AO2 LTG DSNT SW Vance Brand Airport KLMO 022334Z AUTO 00000KT 10SM CLR 32/04 A2999 RMK AO2 T03170037 PWINO Sterling Municipal Airport KSTK 022325Z AUTO 16003KT 10SM CLR 35/06 A2989 RMK AO2 Holyoke Airport KHEQ 022335Z AUTO 00000KT 10SM CLR 35/08 A2989 RMK AO2 COLORADO PLAINS REGIONAL KAKO 022253Z AUTO 16006KT 10SM CLR 32/03 A2996 RMK AO2 SLP079 T03220033 Kit Carson County Airport KITR 022253Z AUTO VRB04KT 10SM CLR 34/06 A2993 RMK AO2 SLP074 T03390056 LIMON MUNICIPAL AIRPORT KLIC 022255Z AUTO VRB04KT 10SM CLR 31/03 A3003 RMK AO2 SLP090 T03110033 COLORADO SPRINGS MUNI KCOS 022254Z 11006G15KT 10SM SCT110 SCT250 29/02 A3009 LAMAR MUNICIPAL AIRPORT KLAA 022253Z AUTO 27006KT 8SM CLR 34/08 A2988 RMK AO2 SLP063 T03390083 TSNO LA JUNTA MUNICIPAL AIRPORT KLHX 022253Z AUTO VRB04KT 10SM CLR 36/03 A2992 RMK AO2 SLP062 T03610033 Trinidad, Perry Stokes Airport KTAD 022254Z AUTO 17017G23KT 10SM CLR 28/06 A3008 RMK AO2 PK WND 15029/2230 LTG DSNT S SLP103 T02780061 PUEBLO MEMORIAL AIRPORT KPUB 022253Z AUTO 13011KT 10SM CLR 34/04 A2996 CANON CITY 1V6 SAN LUIS VALLEY REGIONAL KALS 022303Z AUTO 32015G26KT 10SM BKN100 BKN110 22/04 A3023 Saguache, Saguache Municipal Airport K04V 022332Z AUTO 11003KT 10SM -RA BKN095 OVC110 20/07 A3031 RMK AO2 LTG DSNT SE S AND NW Granby-Grand County Airport KGNB WALDEN 33V Steamboat Springs KSBS 022335Z AUTO 07003KT 10SM SCT120 24/06 A3016 RMK AO1 T02420056 Hayden, Yampa Valley Airport KHDN 090755Z AUTO 10009KT 10SM FEW037 SCT060 BKN065 13/08 A3024 RMK AO1 TSNO Kremmling, Mc Elroy Airfield K20V 022336Z AUTO 24007KT 10SM VCTS CLR 23/00 A3021 RMK AO2 LEADVILLE LAKE CO KLXV 022253Z AUTO 19008KT 10SM SCT090 18/02 A3039 Eagle County Regional KEGE 022253Z 28011KT 10SM SCT100 26/06 A3017 CRAIG MOFFAT AIRPORT KCAG 022330Z AUTO 18009KT 10SM VCTS SCT085 26/08 A3011 MEEKER AIRPORT KEEO 022253Z AUTO 01003KT 10SM SCT110 26/09 A3012 RMK AO2 RAB2159E08 TSE01 SLP118 P0000 T02560094 ASPEN-PITKIN COUNTY AIRPORT KASE 022253Z 32008KT 10SM FEW120 24/06 A3024 Gunnison, Gunnison-Crested Butte Regional Airport KGUC 022335Z AUTO 14009KT 10SM TS FEW034 BKN070 15/09 A3031 RMK AO1 WSHFT 58 P0005 DURANGO-LA PLATA COUNTY AIRPORT  KDRO 022327Z AUTO 25012KT 10SM FEW120 24/08 A3019 RMK AO2 LTG DSNT NE AND E TSE2257 T02440078 Stevens Field Airport KPSO 022335Z AUTO 27012KT 10SM SCT070 SCT110 25/03 A3026 RMK AO2 LTG DSNT N AND W T02510033 CORTEZ MONTEZUMA COUNTY AIRPORT  KCEZ 022253Z AUTO 20011KT 10SM FEW085 27/08 A3013 RMK AO2 SLP129 T02720078 MONTROSE REGIONAL AIRPORT KMTJ 022321Z AUTO 01009KT 10SM FEW090 25/11 A3011 RMK AO2 LTG DSNT NE T02500111 RIFLE GARFIELD COUNTY RGNL KRIL 022253Z AUTO 15005KT 10SM -RA FEW043 FEW065 SCT100 24/13 A3008 RMK AO2 WSHFT 2144 RAE01B43 TSE04 SLP127 P0000 T02440128 GRAND JUNCTION WALKER FIELD KGJT 022253Z 31007KT 10SM SCT100 30/08 A3001 Blake Field Airport KAJZ 022335Z AUTO 15006KT 5SM HZ SCT120 30/08 A3005 RMK AO2 LTG DSNT NE T03040078 Central Colorado Regional Airport KAEJ 022335Z AUTO 26011KT 10SM SCT120 24/01 A3025 RMK AO2 LTG DSNT SW T02370008 Harriet Alexander Field Airport KANK 022335Z AUTO 20014G21KT 10SM OVC110 24/02 A3029 RMK AO1 T02400021 Erie Municipal Airport KEIK 022335Z AUTO 13003KT 10SM CLR 32/00 A2998 RMK AO2 LTG DSNT SW T03150002 Wray Municipal Airport K2V5 022335Z AUTO 14006KT 10SM OVC002 36/04 A2988 RMK AO2 T03610044
Legend: High Mountain AWOS Mountain Pass AWOS
Mountain Pass AWOS - Click symbol for weather report Pagosa Springs, Wolf Creek Pass KCPW 020451Z AUTO 23015KT 10SM SCT038 SCT047 08/03 A3065 RMK AO2 LTG DSNT N Saguache, Saguache Municipal Airport K04V 022332Z AUTO 11003KT 10SM -RA BKN095 OVC110 20/07 A3031 RMK AO2 LTG DSNT SE S AND NW Kremmling, Mc Elroy Airfield K20V 022336Z AUTO 24007KT 10SM VCTS CLR 23/00 A3021 RMK AO2 La Veta Mountain, La Veta Pass KVTP 022328Z AUTO 21005KT 10SM VCTS SCT075 OVC110 19/01 A3043 RMK AO2 LTG DSNT SW Salida Mountain, Monarch Pass KMYP 022334Z AUTO 21016KT 10SM SCT048 SCT065 BKN100 11/02 A3069 RMK AO2 LTG DSNT W Cottonwood Pass K7BM 022327Z AUTO 31005KT 10SM SCT090 20/00 A3041 RMK AO2 LTG DSNT SW Elbert Mountain, Monument Pass KMNH 022334Z AUTO 13005KT 10SM CLR 23/05 A3017 RMK AO2 LTG DSNT W Wilkerson Pass K4BM 022336Z AUTO 23006KT 10SM BKN110 16/M01 A3054 RMK AO2 Copper Mountain, Red Cliff Pass KCCU 022333Z AUTO 27014G23KT 10SM CLR 16/M02 A3057 RMK AO2 EMPIRE 0CO Sunlight K5SM 022332Z AUTO 00000KT 10SM CLR 17/08 A3050 RMK AO2 LTG DSNT SE AND S
Garmin aera 796 $1999 at Avionics Specialists LLC
Bose A20 Aviation Headsets $995 at Avionics Specialists LLC